Terminal Aerodrome Forecast
Issued by NWS

Home | Current Version | Previous Version | Text Only | Print | Product List | Glossary On
Versions: 1 2 3 4 5 6 7 8 9 10 11 12 13 14 15 16 17 18 19 20 21
000
FTUS43 KAPX 160500
TAFMBL
TAF
KMBL 160526Z 1606/1706 VRB03KT P6SM SCT025 SCT050
     FM161400 15009KT P6SM SCT050 OVC100
     FM170000 12006KT P6SM VCSH SCT025 OVC050
      AMD LTD TO CLD VIS AND WIND=

USA.gov is the U.S. government's official web portal to all federal, state and local government web resources and services.